Time;durP1;ratioP1;P1;durP2;ratioP2;P2;SDS_P1;SDS_P2;PMS_P1;PMS_P2;Temp;Humidity;BMP_temperature;BMP_pressure;BME280_temperature;BME280_humidity;BME280_pressure;Samples;Min_cycle;Max_cycle;Signal;HPM_P1;HPM_P2
2022/06/01 00:02:09;;;;;;;;;1.00;1.00;;;;;18.51;39.42;101238.88;5059876;28;45475;-86
2022/06/01 00:04:34;;;;;;;;;1.33;0.00;;;;;18.48;39.45;101243.66;5059915;28;46427;-85
2022/06/01 00:07:00;;;;;;;;;1.67;0.00;;;;;18.21;39.69;101208.59;5058646;28;45583;-85
2022/06/01 00:09:25;;;;;;;;;1.00;1.00;;;;;18.41;39.96;101247.75;5050806;28;45449;-86
2022/06/01 00:11:51;;;;;;;;;1.33;1.33;;;;;18.14;39.47;101206.34;5057557;28;45538;-85
2022/06/01 00:14:17;;;;;;;;;1.67;1.67;;;;;18.19;39.93;101219.53;5051572;28;46174;-85
2022/06/01 00:16:42;;;;;;;;;1.00;1.00;;;;;18.17;39.66;101226.84;5050334;28;45478;-85
2022/06/01 00:19:08;;;;;;;;;1.00;1.00;;;;;18.18;40.60;101235.81;5053360;28;45377;-86
2022/06/01 00:21:34;;;;;;;;;1.00;1.00;;;;;18.27;40.18;101259.47;5054316;28;45560;-84
2022/06/01 00:23:59;;;;;;;;;1.00;1.00;;;;;18.15;40.41;101236.88;5055722;28;46165;-85
2022/06/01 00:26:25;;;;;;;;;1.00;1.00;;;;;18.21;40.44;101254.47;5055593;28;45441;-85
2022/06/01 00:28:50;;;;;;;;;0.33;0.33;;;;;18.14;40.53;101251.31;5053775;28;45531;-85
2022/06/01 00:31:16;;;;;;;;;2.00;2.00;;;;;17.96;40.63;101228.28;5050878;28;45753;-86
2022/06/01 00:33:42;;;;;;;;;2.33;1.67;;;;;17.84;40.63;101216.47;5053961;28;46906;-84
2022/06/01 00:36:10;;;;;;;;;2.00;1.00;;;;;18.03;40.67;101262.00;5056907;28;45461;-86
2022/06/01 00:38:35;;;;;;;;;0.67;0.67;;;;;17.79;41.00;101218.59;5053127;28;45394;-85
2022/06/01 00:41:01;;;;;;;;;2.00;1.00;;;;;17.89;41.06;101231.41;5057100;28;45498;-85
2022/06/01 00:43:42;;;;;;;;;2.33;1.00;;;;;18.01;40.78;101250.44;5034315;28;47896;-85
2022/06/01 00:46:08;;;;;;;;;3.00;2.00;;;;;18.01;41.27;101250.44;5046030;28;45436;-85
2022/06/01 00:48:34;;;;;;;;;2.67;1.67;;;;;17.86;41.18;101231.63;5055704;28;45340;-85
2022/06/01 00:51:00;;;;;;;;;1.33;1.33;;;;;17.98;41.19;101248.81;5048283;28;45224;-85
2022/06/01 00:53:29;;;;;;;;;2.00;1.00;;;;;17.95;41.44;101254.38;5035799;28;48120;-85
2022/06/01 00:55:59;;;;;;;;;1.00;1.00;;;;;17.94;41.29;101252.69;5053489;28;45552;-85
2022/06/01 00:58:32;;;;;;;;;2.00;2.00;;;;;17.86;41.55;101241.53;5035317;28;45561;-85
2022/06/01 01:00:58;;;;;;;;;2.00;2.00;;;;;17.78;41.73;101236.59;5050631;28;45463;-85
2022/06/01 01:03:28;;;;;;;;;4.33;2.67;;;;;17.59;41.75;101209.13;5031482;28;47216;-85
2022/06/01 01:06:14;;;;;;;;;2.00;1.00;;;;;17.77;41.66;101245.69;5048012;28;45474;-84
2022/06/01 01:08:41;;;;;;;;;1.00;1.00;;;;;17.79;42.19;101246.41;5045232;28;45516;-84
2022/06/01 01:11:12;;;;;;;;;1.67;1.67;;;;;17.77;42.05;101251.06;5051375;28;45968;-85
2022/06/01 01:13:40;;;;;;;;;2.33;2.33;;;;;17.77;42.47;101252.88;5046179;28;46359;-85
2022/06/01 01:16:07;;;;;;;;;2.33;2.33;;;;;17.75;42.43;101247.59;5042540;28;45516;-85
2022/06/01 01:18:38;;;;;;;;;2.00;2.00;;;;;17.72;42.42;101248.69;5054325;28;45419;-85
2022/06/01 01:21:28;;;;;;;;;3.00;3.00;;;;;17.69;42.31;101248.84;5052680;28;45327;-85
2022/06/01 01:24:14;;;;;;;;;2.67;2.67;;;;;17.58;42.58;101229.81;5055516;28;46195;-85
2022/06/01 01:26:43;;;;;;;;;1.00;1.00;;;;;17.66;43.02;101245.50;5050441;28;45404;-84
2022/06/01 01:29:09;;;;;;;;;2.67;2.67;;;;;17.62;42.97;101239.44;5054157;28;45496;-86
2022/06/01 01:31:37;;;;;;;;;4.67;4.67;;;;;17.59;43.35;101236.94;5054129;28;45518;-85
2022/06/01 01:34:04;;;;;;;;;1.67;1.67;;;;;17.48;42.47;101223.31;5033716;28;47439;-86
2022/06/01 01:36:35;;;;;;;;;2.00;2.00;;;;;17.44;43.13;101217.28;5043379;28;45404;-83
2022/06/01 01:39:15;;;;;;;;;3.00;3.00;;;;;17.57;43.30;101238.03;5056164;28;45279;-85
2022/06/01 01:41:46;;;;;;;;;2.00;2.00;;;;;17.48;43.24;101234.94;5050761;28;45503;-86
2022/06/01 01:44:12;;;;;;;;;5.00;2.00;;;;;17.57;42.91;101248.81;5053932;28;46328;-85
2022/06/01 01:46:38;;;;;;;;;1.00;1.00;;;;;17.37;43.40;101221.31;5054114;28;45516;-85
2022/06/01 01:49:04;;;;;;;;;2.00;2.00;;;;;17.50;43.27;101249.19;5052514;28;45424;-85
2022/06/01 01:51:31;;;;;;;;;4.00;2.00;;;;;17.48;43.70;101251.13;5054098;28;45612;-85
2022/06/01 01:54:01;;;;;;;;;7.33;3.00;;;;;17.43;43.75;101244.31;5054204;28;46404;-86
2022/06/01 01:56:41;;;;;;;;;3.00;2.00;;;;;17.36;43.69;101233.06;5052011;28;45433;-85
2022/06/01 01:59:39;;;;;;;;;3.00;3.00;;;;;17.37;43.45;101228.53;5053010;28;45495;-85
2022/06/01 02:02:18;;;;;;;;;2.00;2.00;;;;;17.30;43.54;101225.34;5054312;28;45539;-85
2022/06/01 02:07:54;;;;;;;;;1.33;1.33;;;;;17.15;43.61;101199.41;5052829;28;45507;-85
2022/06/01 02:13:05;;;;;;;;;2.00;2.00;;;;;17.00;44.16;101182.41;5045958;28;45675;-85
2022/06/01 02:15:36;;;;;;;;;2.00;2.00;;;;;17.13;43.87;101204.88;5054886;28;46315;-85
2022/06/01 02:18:08;;;;;;;;;2.00;2.00;;;;;17.26;43.97;101227.41;5054428;28;45423;-85
2022/06/01 02:20:44;;;;;;;;;1.00;1.00;;;;;17.23;43.67;101222.22;5053156;28;45348;-85
2022/06/01 02:23:13;;;;;;;;;3.00;3.00;;;;;17.21;43.87;101220.59;5050879;28;45357;-85
2022/06/01 02:25:41;;;;;;;;;4.00;2.33;;;;;16.99;44.41;101186.06;5053413;28;46073;-85
2022/06/01 02:28:07;;;;;;;;;3.33;2.67;;;;;17.03;44.27;101201.06;5043325;28;45356;-85
2022/06/01 02:30:38;;;;;;;;;2.67;2.00;;;;;17.04;44.10;101194.69;5053116;28;45489;-85
2022/06/01 02:33:08;;;;;;;;;2.33;2.33;;;;;17.05;44.19;101202.69;5051480;28;45439;-84
2022/06/01 02:35:37;;;;;;;;;1.00;1.00;;;;;17.11;44.64;101219.41;5041205;28;47337;-86
2022/06/01 02:38:10;;;;;;;;;2.00;2.00;;;;;17.06;44.57;101220.56;5054752;28;45541;-84
2022/06/01 02:40:36;;;;;;;;;2.00;2.00;;;;;17.00;44.53;101212.03;5055277;28;45543;-85
2022/06/01 02:43:01;;;;;;;;;2.00;2.00;;;;;16.98;44.69;101224.72;5049253;28;45490;-84
2022/06/01 02:45:27;;;;;;;;;3.33;3.00;;;;;16.67;44.48;101181.72;5039145;28;47340;-84
2022/06/01 02:47:55;;;;;;;;;4.00;4.00;;;;;16.90;44.93;101221.63;5057153;28;46004;-85
2022/06/01 02:50:24;;;;;;;;;4.00;3.67;;;;;16.85;45.05;101214.69;5055388;28;45691;-85
2022/06/01 02:52:50;;;;;;;;;3.33;2.00;;;;;16.81;45.03;101210.50;5060144;28;45496;-85
2022/06/01 02:55:17;;;;;;;;;3.00;3.00;;;;;16.62;45.23;101189.22;5049613;28;46431;-85
2022/06/01 02:57:43;;;;;;;;;3.67;3.67;;;;;16.79;44.95;101214.25;5060884;28;45477;-85
2022/06/01 03:00:17;;;;;;;;;5.00;4.00;;;;;16.58;45.38;101178.72;5058336;28;45459;-85
2022/06/01 03:03:03;;;;;;;;;4.67;4.00;;;;;16.78;45.47;101207.09;5060437;28;45431;-85
2022/06/01 03:05:39;;;;;;;;;2.00;2.00;;;;;16.73;44.98;101206.50;5059951;28;46274;-85
2022/06/01 03:08:05;;;;;;;;;7.00;5.67;;;;;16.73;45.31;101206.50;5059192;28;45456;-85
2022/06/01 03:10:33;;;;;;;;;5.00;5.00;;;;;16.72;45.33;101205.66;5051859;28;45466;-85
2022/06/01 03:12:58;;;;;;;;;3.00;3.00;;;;;16.60;45.33;101201.91;5060017;28;45396;-85
2022/06/01 03:15:25;;;;;;;;;5.67;4.00;;;;;16.65;45.60;101207.00;5040851;28;46998;-85
2022/06/01 03:17:50;;;;;;;;;3.00;3.00;;;;;16.53;45.43;101192.47;5058558;28;45332;-85
2022/06/01 03:20:19;;;;;;;;;2.33;2.33;;;;;16.52;45.35;101201.47;5059115;28;45571;-85
2022/06/01 03:22:45;;;;;;;;;3.33;3.33;;;;;16.57;45.93;101209.28;5059201;28;45343;-85
2022/06/01 03:25:17;;;;;;;;;4.33;4.00;;;;;16.62;45.78;101221.50;5055722;28;47145;-85
2022/06/01 03:27:42;;;;;;;;;3.00;3.00;;;;;16.62;46.02;101226.00;5053499;28;45984;-86
2022/06/01 03:30:11;;;;;;;;;3.00;3.00;;;;;16.25;45.89;101159.19;5054872;28;46219;-86
2022/06/01 03:32:37;;;;;;;;;4.00;4.00;;;;;16.22;45.83;101167.44;5059948;28;45339;-84
2022/06/01 03:35:04;;;;;;;;;2.00;2.00;;;;;16.42;46.46;101205.72;5059729;28;45578;-85
2022/06/01 03:37:31;;;;;;;;;3.67;3.67;;;;;16.43;46.42;101204.72;5057734;28;45434;-85
2022/06/01 03:39:56;;;;;;;;;2.00;2.00;;;;;16.17;46.71;101161.44;5059825;28;45308;-86
2022/06/01 03:42:22;;;;;;;;;4.33;4.33;;;;;16.15;46.35;101163.38;5058266;28;45255;-87
2022/06/01 03:47:34;;;;;;;;;3.33;3.33;;;;;16.48;46.63;101229.53;5058099;28;45465;-85
2022/06/01 03:50:03;;;;;;;;;4.00;4.00;;;;;16.32;46.71;101210.78;5057296;28;45427;-89
2022/06/01 03:52:28;;;;;;;;;2.00;2.00;;;;;16.31;46.69;101205.50;5050441;28;46308;-85
2022/06/01 03:54:53;;;;;;;;;8.00;6.00;;;;;16.33;46.52;101215.19;5057096;28;45959;-85
2022/06/01 03:57:19;;;;;;;;;4.33;3.67;;;;;16.39;46.66;101236.34;5054914;28;45425;-85
2022/06/01 03:59:44;;;;;;;;;4.67;3.67;;;;;16.25;46.71;101217.50;5053450;28;45889;-85
2022/06/01 04:02:10;;;;;;;;;3.00;3.00;;;;;16.29;46.97;101220.84;5056757;28;45495;-86
2022/06/01 04:04:36;;;;;;;;;3.33;3.33;;;;;16.44;47.20;101245.00;5053473;28;46903;-86
2022/06/01 04:07:01;;;;;;;;;4.33;2.67;;;;;16.44;47.30;101247.69;5040711;28;45487;-86
2022/06/01 04:09:29;;;;;;;;;3.00;3.00;;;;;16.45;47.26;101256.63;5057296;28;45550;-86
2022/06/01 04:11:55;;;;;;;;;3.33;3.33;;;;;16.47;47.33;101260.09;5058900;28;45466;-87
2022/06/01 04:14:20;;;;;;;;;5.67;3.00;;;;;16.30;47.34;101228.84;5058831;28;47405;-87
2022/06/01 04:16:49;;;;;;;;;1.67;1.67;;;;;16.47;47.34;101249.34;5041180;28;45516;-87
2022/06/01 04:19:15;;;;;;;;;3.00;3.00;;;;;16.22;47.57;101212.28;5057514;28;45464;-84
2022/06/01 04:21:43;;;;;;;;;3.00;3.00;;;;;16.41;47.81;101247.00;5056724;28;45298;-83
2022/06/01 04:24:16;;;;;;;;;3.67;3.67;;;;;16.46;47.74;101264.63;5056140;28;45592;-84
2022/06/01 04:26:42;;;;;;;;;3.00;3.00;;;;;16.45;47.93;101257.50;5051900;28;47179;-83
2022/06/01 04:29:08;;;;;;;;;5.00;3.00;;;;;16.44;48.02;101265.69;5058105;28;45420;-83
2022/06/01 04:31:35;;;;;;;;;3.00;3.00;;;;;16.37;48.00;101251.72;5056165;28;45344;-84
2022/06/01 04:34:00;;;;;;;;;5.00;3.67;;;;;16.44;47.95;101271.06;5051377;28;48336;-83
2022/06/01 04:36:26;;;;;;;;;4.00;3.00;;;;;16.43;47.82;101274.69;5056493;28;48407;-83
2022/06/01 04:38:51;;;;;;;;;3.00;3.00;;;;;16.35;48.07;101267.09;5040511;28;45811;-85
2022/06/01 04:41:17;;;;;;;;;4.00;4.00;;;;;16.35;48.03;101263.53;5055739;28;45636;-86
2022/06/01 04:43:42;;;;;;;;;3.67;2.33;;;;;16.45;47.50;101272.78;5058793;28;46286;-84
2022/06/01 04:46:08;;;;;;;;;3.67;3.67;;;;;16.45;47.39;101273.63;5058009;28;45392;-84
2022/06/01 04:48:33;;;;;;;;;5.00;3.67;;;;;16.15;47.48;101230.59;5053888;28;45514;-86
2022/06/01 04:50:58;;;;;;;;;2.00;2.00;;;;;16.44;47.23;101281.81;5053973;28;45526;-87
2022/06/01 04:53:25;;;;;;;;;3.00;3.00;;;;;16.44;47.29;101284.50;5055436;28;46325;-85
2022/06/01 04:55:51;;;;;;;;;4.67;3.33;;;;;16.38;47.34;101283.03;5050090;28;45627;-85
2022/06/01 04:58:17;;;;;;;;;4.67;4.00;;;;;16.43;47.32;101293.53;5043232;28;45487;-84
2022/06/01 05:00:46;;;;;;;;;4.00;4.00;;;;;16.39;47.38;101294.69;5062522;28;45428;-84
2022/06/01 05:03:12;;;;;;;;;3.00;3.00;;;;;16.32;47.43;101283.41;5058547;28;46787;-83
2022/06/01 05:05:39;;;;;;;;;6.00;5.00;;;;;16.41;47.65;101298.13;5058753;28;45371;-87
2022/06/01 05:08:06;;;;;;;;;4.67;4.67;;;;;16.43;47.58;101301.59;5059648;28;45598;-84
2022/06/01 05:10:32;;;;;;;;;6.00;5.00;;;;;16.36;47.74;101293.00;5064825;28;45691;-84
2022/06/01 05:12:57;;;;;;;;;5.67;5.67;;;;;16.25;47.84;101276.66;5056814;28;46906;-86
2022/06/01 05:15:23;;;;;;;;;7.33;4.00;;;;;16.28;47.74;101275.63;5051871;28;45456;-84
2022/06/01 05:17:48;;;;;;;;;7.67;7.33;;;;;16.48;47.80;101312.94;5061299;28;45437;-85
2022/06/01 05:20:14;;;;;;;;;5.00;3.67;;;;;16.48;47.81;101310.25;5055118;28;45587;-86
2022/06/01 05:22:40;;;;;;;;;5.00;5.00;;;;;16.52;47.88;101308.25;5054958;28;46586;-87
2022/06/01 05:25:07;;;;;;;;;4.33;4.33;;;;;16.55;47.53;101311.66;5063927;28;45677;-86
2022/06/01 05:27:32;;;;;;;;;5.00;5.00;;;;;16.25;47.67;101261.38;5064726;28;45460;-86
2022/06/01 05:29:58;;;;;;;;;4.00;4.00;;;;;16.36;47.50;101268.81;5036169;28;45623;-86
2022/06/01 05:32:24;;;;;;;;;5.00;5.00;;;;;16.28;47.70;101260.34;5050966;28;45702;-86
2022/06/01 05:34:49;;;;;;;;;5.33;4.00;;;;;16.62;47.54;101306.75;5046236;28;45500;-83
2022/06/01 05:37:15;;;;;;;;;5.00;4.00;;;;;16.49;47.56;101285.09;5051891;28;45527;-84
2022/06/01 05:39:40;;;;;;;;;3.00;3.00;;;;;16.57;47.69;101290.00;5052042;28;45490;-83
2022/06/01 05:42:21;;;;;;;;;4.00;3.00;;;;;16.72;47.35;101307.94;5053387;28;45556;-89
2022/06/01 05:44:46;;;;;;;;;2.00;2.00;;;;;15.80;46.65;101147.53;5052136;28;45481;-84
2022/06/01 05:47:12;;;;;;;;;3.00;3.00;;;;;16.04;47.26;101169.41;5056722;28;45418;-86
2022/06/01 05:49:37;;;;;;;;;3.00;2.67;;;;;16.85;47.15;101298.16;5057751;28;45494;-83
2022/06/01 05:52:02;;;;;;;;;6.00;4.67;;;;;16.88;47.52;101303.38;5057791;28;45709;-83
2022/06/01 05:54:28;;;;;;;;;4.00;4.00;;;;;16.82;47.20;101282.22;5055677;28;45481;-83
2022/06/01 05:56:53;;;;;;;;;3.00;3.00;;;;;16.94;47.02;101294.06;5057311;28;45364;-84
2022/06/01 05:59:19;;;;;;;;;4.00;4.00;;;;;16.97;47.21;101287.59;5057947;28;45560;-84
2022/06/01 06:01:44;;;;;;;;;3.67;3.00;;;;;17.02;47.44;101291.78;5056124;28;46098;-83
2022/06/01 06:04:09;;;;;;;;;4.00;4.00;;;;;17.13;47.17;101303.69;5057302;28;45348;-82
2022/06/01 06:06:35;;;;;;;;;4.33;4.00;;;;;17.15;46.95;101302.63;5053478;28;45379;-91
2022/06/01 06:09:04;;;;;;;;;4.00;4.00;;;;;17.23;46.81;101294.06;5055470;28;45335;-88
2022/06/01 06:11:33;;;;;;;;;3.00;3.00;;;;;17.26;46.78;101299.28;5058304;28;48346;-88
2022/06/01 06:13:59;;;;;;;;;3.00;3.00;;;;;17.36;46.63;101305.81;5061679;28;45471;-87
2022/06/01 06:16:30;;;;;;;;;5.67;4.00;;;;;17.39;46.31;101310.13;5055265;28;45343;-88
2022/06/01 06:18:58;;;;;;;;;4.00;4.00;;;;;17.23;46.26;101259.94;5064351;28;45505;-88
2022/06/01 06:21:26;;;;;;;;;3.67;3.67;;;;;17.52;45.96;101300.31;5061868;28;46277;-87
2022/06/01 06:23:51;;;;;;;;;6.00;3.00;;;;;17.52;45.99;101297.63;5060580;28;45392;-88
2022/06/01 06:26:17;;;;;;;;;2.00;2.00;;;;;17.62;45.29;101303.28;5060315;28;45515;-87
2022/06/01 06:28:45;;;;;;;;;4.33;3.00;;;;;17.58;45.33;101291.81;5058199;28;45775;-87
2022/06/01 06:31:11;;;;;;;;;3.67;3.00;;;;;17.42;45.22;101253.34;5056633;28;47326;-88
2022/06/01 06:33:36;;;;;;;;;4.00;3.00;;;;;17.76;45.17;101297.84;5052859;28;45607;-88
2022/06/01 06:36:07;;;;;;;;;1.00;1.00;;;;;17.43;44.78;101241.59;5061847;28;45316;-88
2022/06/01 06:38:36;;;;;;;;;1.33;1.33;;;;;17.84;44.13;101306.34;5058419;28;45526;-86
2022/06/01 06:41:03;;;;;;;;;1.33;1.33;;;;;17.72;44.02;101280.13;5059436;28;46360;-86
2022/06/01 06:43:31;;;;;;;;;2.00;2.00;;;;;17.93;44.04;101304.88;5058714;28;45365;-87
2022/06/01 06:46:18;;;;;;;;;3.00;3.00;;;;;17.98;44.38;101316.25;5060197;28;45711;-87
2022/06/01 06:48:45;;;;;;;;;1.67;1.67;;;;;17.98;44.04;101309.97;5056218;28;45654;-86
2022/06/01 06:51:12;;;;;;;;;2.00;2.00;;;;;18.07;43.76;101318.31;5060769;28;46845;-86
2022/06/01 06:53:38;;;;;;;;;1.00;1.00;;;;;17.96;43.77;101290.31;5058392;28;48401;-86
2022/06/01 06:56:04;;;;;;;;;2.00;2.00;;;;;17.63;44.04;101232.22;5058182;28;45537;-86
2022/06/01 06:58:30;;;;;;;;;2.00;2.00;;;;;17.79;43.93;101253.66;5059673;28;45590;-86
2022/06/01 07:00:56;;;;;;;;;3.33;1.33;;;;;18.09;43.78;101291.25;5043778;28;48073;-86
2022/06/01 07:03:21;;;;;;;;;2.00;2.00;;;;;17.96;44.08;101266.03;5059869;28;46892;-86
2022/06/01 07:08:31;;;;;;;;;3.00;2.00;;;;;18.32;43.64;101309.44;5058212;28;46392;-87
2022/06/01 07:10:58;;;;;;;;;2.33;2.33;;;;;17.77;43.61;101204.34;5057624;28;45616;-87
2022/06/01 07:13:24;;;;;;;;;3.33;3.33;;;;;18.19;43.35;101270.78;5057825;28;45356;-84
2022/06/01 07:16:14;;;;;;;;;3.00;3.00;;;;;18.27;42.88;101273.81;5056312;28;45640;-87
2022/06/01 07:18:42;;;;;;;;;3.00;3.00;;;;;18.31;43.31;101267.25;5040597;28;45495;-85
2022/06/01 07:21:07;;;;;;;;;2.00;2.00;;;;;18.07;42.91;101218.50;5057779;28;47000;-87
2022/06/01 07:23:35;;;;;;;;;1.33;1.33;;;;;18.63;42.53;101311.91;5058928;28;45603;-87
2022/06/01 07:26:01;;;;;;;;;2.00;2.00;;;;;18.42;42.46;101260.25;5059777;28;45486;-87
2022/06/01 07:28:26;;;;;;;;;4.00;3.00;;;;;18.82;42.98;101323.19;5057777;28;45449;-87
2022/06/01 07:30:58;;;;;;;;;2.33;2.00;;;;;18.81;42.51;101313.38;5059583;28;46057;-85
2022/06/01 07:33:29;;;;;;;;;5.00;4.00;;;;;18.88;42.49;101321.91;5063442;28;45466;-86
2022/06/01 07:35:58;;;;;;;;;3.00;3.00;;;;;18.74;42.87;101299.41;5059288;28;45459;-86
2022/06/01 07:43:54;;;;;;;;;3.00;3.00;;;;;18.98;42.35;101317.59;5058127;28;45367;-86
2022/06/01 07:46:19;;;;;;;;;3.67;2.00;;;;;19.00;42.44;101322.91;5059922;28;45486;-93
2022/06/01 07:48:46;;;;;;;;;2.00;2.00;;;;;19.12;42.54;101327.44;5061315;28;45533;-89
2022/06/01 07:51:13;;;;;;;;;2.00;2.00;;;;;19.13;42.39;101316.53;5057594;28;46153;-90
2022/06/01 07:53:39;;;;;;;;;1.67;1.67;;;;;19.25;42.69;101330.16;5057724;28;45380;-90
2022/06/01 07:56:04;;;;;;;;;2.00;2.00;;;;;19.33;42.38;101327.75;5061089;28;45451;-91
2022/06/01 07:58:30;;;;;;;;;2.33;2.33;;;;;19.34;42.02;101318.69;5059439;28;45428;-90
2022/06/01 08:00:55;;;;;;;;;1.00;1.00;;;;;19.40;42.25;101310.13;5056288;28;46320;-92
2022/06/01 08:03:21;;;;;;;;;2.00;2.00;;;;;19.50;41.76;101331.94;5059633;28;45431;-93
2022/06/01 08:05:46;;;;;;;;;1.00;0.67;;;;;19.37;41.77;101286.88;5059688;28;45431;-94
2022/06/01 08:08:13;;;;;;;;;1.00;1.00;;;;;19.52;40.67;101311.06;5043178;28;45519;-88
2022/06/01 08:10:39;;;;;;;;;1.67;0.67;;;;;19.56;41.06;101316.16;5059407;28;46354;-89
2022/06/01 08:13:09;;;;;;;;;1.00;1.00;;;;;19.32;40.94;101274.69;5060881;28;45380;-93
2022/06/01 08:15:49;;;;;;;;;1.00;1.00;;;;;19.58;40.90;101314.22;5063826;28;45265;-94
2022/06/01 08:18:20;;;;;;;;;1.33;1.33;;;;;19.63;41.39;101313.88;5063097;28;45798;-96
2022/06/01 08:20:46;;;;;;;;;2.00;1.67;;;;;19.65;41.06;101306.50;5063360;28;45367;-95
2022/06/01 08:23:12;;;;;;;;;0.00;0.00;;;;;19.75;41.02;101317.56;5060616;28;45421;-94
2022/06/01 08:25:37;;;;;;;;;1.00;1.00;;;;;19.75;41.07;101307.59;5064494;28;45365;-93
2022/06/01 08:28:04;;;;;;;;;0.00;0.00;;;;;19.89;40.44;101314.69;5048735;28;45484;-89
2022/06/01 08:30:33;;;;;;;;;1.00;1.00;;;;;19.85;40.42;101288.84;5058142;28;45666;-90
2022/06/01 08:32:59;;;;;;;;;1.67;1.67;;;;;20.09;39.94;101304.22;5059224;28;45383;-89
2022/06/01 08:35:31;;;;;;;;;3.67;1.00;;;;;20.34;40.25;101309.50;5058965;28;45486;-94
2022/06/01 08:37:58;;;;;;;;;1.00;1.00;;;;;20.62;39.79;101311.00;5048140;28;45858;-89
2022/06/01 08:40:29;;;;;;;;;3.67;1.00;;;;;21.07;38.69;101312.94;5057222;28;47218;-89
2022/06/01 08:43:04;;;;;;;;;1.67;1.67;;;;;21.50;38.61;101318.56;5060914;28;45493;-86
2022/06/01 08:45:31;;;;;;;;;2.00;2.00;;;;;21.85;37.33;101305.81;5058978;28;45511;-84
2022/06/01 08:47:56;;;;;;;;;2.00;1.67;;;;;21.99;37.42;101280.25;5051359;28;45490;-84
2022/06/01 08:52:49;;;;;;;;;0.33;0.33;;;;;22.38;36.14;101267.88;5012272;28;45392;-91
2022/06/01 08:55:17;;;;;;;;;3.00;3.00;;;;;22.57;35.72;101258.16;5015670;28;45453;-91
2022/06/01 08:57:54;;;;;;;;;2.00;2.00;;;;;23.03;35.41;101298.56;5025763;28;45391;-94
2022/06/01 09:00:20;;;;;;;;;4.00;1.00;;;;;23.32;35.45;101279.66;5022609;28;46404;-89
2022/06/01 09:03:02;;;;;;;;;1.33;1.33;;;;;23.91;35.40;101291.63;4998390;28;45497;-92
2022/06/01 09:05:36;;;;;;;;;3.00;1.00;;;;;24.57;34.22;101298.28;5013854;28;45427;-91
2022/06/01 09:08:12;;;;;;;;;5.33;2.33;;;;;24.95;33.40;101289.16;5013792;28;45424;-91
2022/06/01 09:11:07;;;;;;;;;1.00;1.00;;;;;25.31;32.39;101297.56;5021153;28;46615;-90
2022/06/01 09:13:53;;;;;;;;;8.33;4.33;;;;;25.46;32.12;101284.28;5006269;28;45482;-86
2022/06/01 09:16:28;;;;;;;;;7.00;3.00;;;;;25.96;31.42;101297.53;5014143;28;45413;-89
2022/06/01 09:18:58;;;;;;;;;11.67;9.00;;;;;26.17;30.99;101277.25;5012567;28;45555;-90
2022/06/01 09:24:28;;;;;;;;;3.67;2.33;;;;;25.93;29.90;101218.63;5012307;28;45632;-90
2022/06/01 09:27:01;;;;;;;;;4.00;2.67;;;;;26.57;29.94;101303.28;5014344;28;45394;-91
2022/06/01 09:29:29;;;;;;;;;1.00;1.00;;;;;26.75;29.71;101279.50;5019297;28;45434;-89
2022/06/01 09:32:07;;;;;;;;;1.00;1.00;;;;;27.27;28.92;101300.53;5013710;28;46640;-89
2022/06/01 09:34:40;;;;;;;;;0.00;0.00;;;;;27.70;27.97;101298.69;5013288;28;45361;-90
2022/06/01 09:37:20;;;;;;;;;0.00;0.00;;;;;27.91;27.99;101293.66;5014901;28;50281;-91
2022/06/01 09:39:57;;;;;;;;;1.00;1.00;;;;;28.37;27.18;101288.56;5024062;28;45542;-91
2022/06/01 09:42:28;;;;;;;;;1.67;1.67;;;;;28.40;26.73;101299.22;5021125;28;47340;-92
2022/06/01 09:44:57;;;;;;;;;2.00;2.00;;;;;28.42;26.51;101304.50;5023012;28;45300;-91
2022/06/01 09:47:43;;;;;;;;;1.00;1.00;;;;;28.60;26.51;101272.31;5017955;28;45526;-90
2022/06/01 09:50:24;;;;;;;;;1.00;1.00;;;;;29.26;25.91;101299.69;5010767;28;45432;-88
2022/06/01 09:53:13;;;;;;;;;0.33;0.33;;;;;29.02;25.56;101257.50;5016375;28;45515;-88
2022/06/01 09:56:00;;;;;;;;;1.00;1.00;;;;;28.69;26.02;101294.28;5024286;28;45446;-88
2022/06/01 10:06:56;;;;;;;;;0.00;0.00;;;;;28.25;26.60;101298.16;5013998;28;45483;-88
2022/06/01 10:09:25;;;;;;;;;1.00;1.00;;;;;30.04;24.46;101271.38;5015030;28;45436;-88
2022/06/01 10:11:51;;;;;;;;;2.00;1.00;;;;;30.08;23.88;101280.94;5014200;28;45623;-89
2022/06/01 10:14:16;;;;;;;;;0.00;0.00;;;;;29.22;25.02;101290.97;5012564;28;47179;-89
2022/06/01 10:16:56;;;;;;;;;1.00;1.00;;;;;31.08;22.98;101257.91;5013104;28;45380;-89
2022/06/01 10:19:30;;;;;;;;;0.00;0.00;;;;;32.50;21.55;101260.31;5003804;28;45561;-88
2022/06/01 10:22:05;;;;;;;;;2.67;1.33;;;;;33.12;21.32;101261.41;5009831;28;45425;-88
2022/06/01 10:24:40;;;;;;;;;2.00;2.00;;;;;33.32;20.59;101272.59;5013204;28;45401;-87
2022/06/01 10:27:06;;;;;;;;;1.00;1.00;;;;;32.56;21.48;101276.03;5015873;28;45551;-86
2022/06/01 10:29:39;;;;;;;;;0.67;0.67;;;;;32.00;21.81;101283.31;5011902;28;45479;-87
2022/06/01 10:32:12;;;;;;;;;0.33;0.33;;;;;31.00;22.97;101290.19;4994925;28;45520;-87
2022/06/01 10:35:18;;;;;;;;;0.00;0.00;;;;;30.71;23.22;101286.31;5013802;28;46529;-89
2022/06/01 10:37:59;;;;;;;;;0.00;0.00;;;;;30.94;23.28;101278.03;5005622;28;48427;-93
2022/06/01 10:40:45;;;;;;;;;0.33;0.33;;;;;31.01;22.67;101287.25;5013359;28;45570;-93
2022/06/01 10:43:30;;;;;;;;;1.00;1.00;;;;;30.84;22.85;101239.78;5012262;28;45464;-88
2022/06/01 10:46:26;;;;;;;;;0.00;0.00;;;;;30.82;22.83;101276.78;5012126;28;48380;-86
2022/06/01 10:49:13;;;;;;;;;2.00;2.00;;;;;30.61;22.89;101281.09;5008863;28;45468;-84
2022/06/01 10:51:38;;;;;;;;;0.00;0.00;;;;;30.19;22.51;101193.56;5009540;28;45336;-87
2022/06/01 10:54:15;;;;;;;;;1.00;1.00;;;;;30.34;23.01;101199.13;5014782;28;45432;-86
2022/06/01 10:56:56;;;;;;;;;2.00;0.33;;;;;30.68;22.83;101176.63;5014520;28;46471;-87
2022/06/01 10:59:27;;;;;;;;;1.00;1.00;;;;;30.89;22.43;101168.50;5013779;28;45491;-85
2022/06/01 11:05:14;;;;;;;;;1.00;1.00;;;;;31.89;22.21;101265.34;5767154;22;45930;-87
2022/06/01 11:08:15;;;;;;;;;0.00;0.00;;;;;31.87;21.85;101260.03;4979155;28;46859;-84
2022/06/01 11:11:02;;;;;;;;;0.00;0.00;;;;;31.74;21.91;101252.44;4980274;28;45666;-85
2022/06/01 11:13:36;;;;;;;;;0.00;0.00;;;;;31.55;21.68;101253.91;4987912;28;45481;-87
2022/06/01 11:16:12;;;;;;;;;0.00;0.00;;;;;30.86;22.15;101187.28;4994599;28;45521;-86
2022/06/01 11:18:59;;;;;;;;;1.00;1.00;;;;;30.94;22.25;101249.66;4993403;28;45606;-87
2022/06/01 11:21:36;;;;;;;;;1.00;1.00;;;;;30.80;22.54;101254.06;4976039;28;45442;-86
2022/06/01 11:24:46;;;;;;;;;1.00;1.00;;;;;30.67;23.18;101250.06;4995047;28;45899;-90
2022/06/01 11:27:29;;;;;;;;;2.33;2.33;;;;;30.59;22.10;101246.53;5002975;28;45513;-90
2022/06/01 11:30:03;;;;;;;;;0.00;0.00;;;;;30.43;22.17;101250.28;4994359;28;46273;-88
2022/06/01 11:32:40;;;;;;;;;0.67;0.67;;;;;30.14;22.36;101229.03;4987934;28;45542;-84
2022/06/01 11:35:18;;;;;;;;;1.33;0.67;;;;;30.17;22.45;101246.00;4998600;28;45510;-92
2022/06/01 11:37:55;;;;;;;;;0.67;0.67;;;;;29.92;22.13;101250.81;5003330;28;45448;-90
2022/06/01 11:40:48;;;;;;;;;0.00;0.00;;;;;29.86;22.47;101246.06;4998106;28;46464;-86
2022/06/01 11:43:21;;;;;;;;;1.00;1.00;;;;;29.85;22.69;101238.81;4997958;28;45480;-85
2022/06/01 11:45:54;;;;;;;;;2.00;2.00;;;;;29.77;22.34;101237.00;5031669;28;45517;-87
2022/06/01 11:48:28;;;;;;;;;0.67;0.67;;;;;29.79;22.46;101239.56;5036548;28;45411;-88
2022/06/01 11:51:06;;;;;;;;;1.00;1.00;;;;;29.60;22.80;101207.88;5035437;28;46809;-86
2022/06/01 11:53:34;;;;;;;;;1.00;1.00;;;;;29.61;22.09;101217.81;5033737;28;46203;-90
2022/06/01 11:56:25;;;;;;;;;3.33;0.00;;;;;29.42;22.54;101232.88;5034674;28;45339;-88
2022/06/01 11:59:16;;;;;;;;;1.00;1.00;;;;;29.37;22.31;101221.56;5031928;28;45702;-87
2022/06/01 12:01:41;;;;;;;;;1.00;1.00;;;;;29.11;22.08;101184.25;5030149;28;46874;-86
2022/06/01 12:04:23;;;;;;;;;1.00;1.00;;;;;29.13;22.33;101223.38;5035089;28;45519;-85
2022/06/01 12:06:48;;;;;;;;;9.67;8.00;;;;;29.03;22.32;101223.56;5023426;28;46427;-87
2022/06/01 12:09:47;;;;;;;;;0.00;0.00;;;;;28.89;22.45;101232.50;5036238;28;45565;-86
2022/06/01 12:12:26;;;;;;;;;1.33;1.33;;;;;28.75;23.09;101233.22;5032624;28;47108;-86
2022/06/01 12:15:01;;;;;;;;;3.00;1.33;;;;;28.46;23.03;101192.59;5035972;28;47878;-84